Alpental, Washington
Current Conditions -  °F | °C
As of 1:53 PM on Wednesday 22 Oct 2014 (Local Time) from KRNT Reporting Station
Light Rain Light Rain  
Wind Chill: 13°   Ceiling: 8500
Heat Index: 13°   Visibility: 6mi
Dew Point: 13°   Wind: 5mph
Humidity: 97%   Direction: 110°ESE
Pressure: 29.68"   Gusts: NA
Location:  47.4076°N, 121.414°W
Report Text: KRNT 222053Z 11004KT 6SM -RA BR FEW040 FEW070 OVC085 13/13 A2968 RMK AO2 SLP055 P0004 60016 T01330128 58017
Loading
Personal Weather Stations






























Interactive Weather Map
Tropical Storm Tracking
New forecast layout! Learn more

10-Day Weather Forecast

Advertisements
Track Severe Weather on mobile